KCAO/CAO METAR and TAF weather

Enter ICAO airport designator
Station Type Date Time Source
KCAO METAR 2021/05/14 11:55 UTC NOAA

KCAO 141155Z AUTO 22009KT 10SM CLR 08/06 A3010 RMK AO2 SLP154 T00830061 10122 20078 56006


Station Type Date Time Source
KCAO Decoded METAR 2021/05/14 11:55 UTC NOAA

CLAYTON MUNICIPAL AIRPARK, NM, United States (KCAO) 36-27N 103-09W 1514M
May 14, 2021 - 07:55 AM EDT / 2021.05.14 1155 UTC
Wind: from the SW (220 degrees) at 10 MPH (9 KT):0
Visibility: 10 mile(s):0
Sky conditions: clear
Temperature: 46.9 F (8.3 C)
Dew Point: 43.0 F (6.1 C)
Relative Humidity: 86%
Pressure (altimeter): 30.1 in. Hg (1019 hPa)
Pressure tendency: 0.02 inches (0.6 hPa) lower than three hours ago
ob: KCAO 141155Z AUTO 22009KT 10SM CLR 08/06 A3010 RMK AO2 SLP154 T00830061 10122 20078 56006
cycle: 12

Station Type Date Time Source
KCAO TAF UTC NOAA

Error!

Example: see airport list